Time;durP1;ratioP1;P1;durP2;ratioP2;P2;SDS_P1;SDS_P2;PMS_P1;PMS_P2;Temp;Humidity;BMP_temperature;BMP_pressure;BME280_temperature;BME280_humidity;BME280_pressure;Samples;Min_cycle;Max_cycle;Signal;HPM_P1;HPM_P2
2023/10/25 00:01:00;;;;;;;2.90;2.40;;;;;;;10.70;100.00;95682.19;5032092;28;20068;-72
2023/10/25 00:03:26;;;;;;;4.55;2.40;;;;;;;10.65;100.00;95680.63;5027435;28;20052;-72
2023/10/25 00:05:51;;;;;;;14.05;3.90;;;;;;;10.57;100.00;95679.09;5024518;28;20127;-72
2023/10/25 00:08:16;;;;;;;9.23;4.05;;;;;;;10.55;100.00;95675.94;5026024;28;20048;-75
2023/10/25 00:10:42;;;;;;;8.20;3.08;;;;;;;10.58;100.00;95686.09;5030911;28;20048;-73
2023/10/25 00:13:07;;;;;;;7.05;3.33;;;;;;;10.54;100.00;95676.34;5021917;28;20417;-73
2023/10/25 00:15:33;;;;;;;5.28;2.20;;;;;;;10.57;100.00;95678.28;5029836;28;20345;-74
2023/10/25 00:17:58;;;;;;;6.65;2.53;;;;;;;10.52;100.00;95679.47;5032041;28;20037;-75
2023/10/25 00:20:23;;;;;;;3.63;2.15;;;;;;;10.51;100.00;95675.97;5019006;28;20041;-74
2023/10/25 00:22:49;;;;;;;2.42;2.05;;;;;;;10.49;100.00;95674.75;5030480;28;20044;-74
2023/10/25 00:25:14;;;;;;;4.88;2.13;;;;;;;10.47;100.00;95677.13;5035674;28;20068;-74
2023/10/25 00:27:40;;;;;;;2.25;1.60;;;;;;;10.39;100.00;95659.91;5031982;28;20041;-73
2023/10/25 00:30:06;;;;;;;4.10;2.42;;;;;;;10.28;100.00;95651.66;5023649;28;20115;-76
2023/10/25 00:32:31;;;;;;;5.05;2.80;;;;;;;10.06;100.00;95659.06;5026516;28;20401;-72
2023/10/25 00:34:56;;;;;;;7.03;4.03;;;;;;;9.92;100.00;95653.56;5032479;28;20037;-74
2023/10/25 00:37:22;;;;;;;5.97;2.65;;;;;;;10.08;100.00;95658.66;5018275;28;20516;-74
2023/10/25 00:39:47;;;;;;;10.98;4.03;;;;;;;10.12;100.00;95659.47;5024399;28;20047;-75
2023/10/25 00:42:13;;;;;;;3.53;2.08;;;;;;;10.19;100.00;95666.88;5019210;28;20353;-74
2023/10/25 00:44:39;;;;;;;5.38;2.40;;;;;;;10.17;100.00;95661.03;5023084;28;20131;-74
2023/10/25 00:47:04;;;;;;;3.67;2.10;;;;;;;10.22;100.00;95655.19;5019573;28;20045;-77
2023/10/25 00:49:30;;;;;;;4.47;1.92;;;;;;;10.34;100.00;95649.34;5023601;28;20052;-74
2023/10/25 00:51:55;;;;;;;6.50;2.20;;;;;;;10.27;100.00;95644.63;5028403;28;20037;-74
2023/10/25 00:54:22;;;;;;;6.57;2.80;;;;;;;10.23;100.00;95637.59;5018981;28;20041;-75
2023/10/25 00:56:49;;;;;;;2.50;1.58;;;;;;;10.20;100.00;95641.88;5031134;28;20129;-74
2023/10/25 00:59:15;;;;;;;3.40;1.90;;;;;;;10.22;100.00;95636.78;5001126;28;20044;-75
2023/10/25 01:01:41;;;;;;;4.45;1.65;;;;;;;10.22;100.00;95636.03;5023418;28;20556;-75
2023/10/25 01:04:07;;;;;;;2.25;1.45;;;;;;;10.22;100.00;95639.53;5018498;28;20116;-74
2023/10/25 01:06:32;;;;;;;3.08;1.50;;;;;;;10.20;100.00;95649.31;5023534;28;20050;-73
2023/10/25 01:08:58;;;;;;;4.13;1.88;;;;;;;10.16;100.00;95656.75;5020621;28;20578;-73
2023/10/25 01:11:25;;;;;;;2.97;2.03;;;;;;;10.11;100.00;95653.19;5016994;28;20514;-74
2023/10/25 01:13:51;;;;;;;3.22;1.60;;;;;;;10.04;100.00;95646.94;5023431;28;20076;-74
2023/10/25 01:16:16;;;;;;;1.67;1.50;;;;;;;9.97;100.00;95641.47;5018497;28;20045;-74
2023/10/25 01:18:42;;;;;;;1.88;1.33;;;;;;;9.98;100.00;95648.50;5019504;28;20132;-74
2023/10/25 01:21:08;;;;;;;1.45;1.10;;;;;;;9.99;100.00;95653.56;5038328;28;20049;-74
2023/10/25 01:23:33;;;;;;;4.43;1.98;;;;;;;10.10;100.00;95645.38;5023127;28;20041;-75
2023/10/25 01:25:58;;;;;;;2.65;1.90;;;;;;;10.17;100.00;95637.19;5024071;28;20095;-75
2023/10/25 01:28:24;;;;;;;2.92;1.95;;;;;;;9.88;100.00;95631.66;5018222;28;20041;-75
2023/10/25 01:30:49;;;;;;;4.35;2.45;;;;;;;9.62;100.00;95629.28;5022771;28;20056;-74
2023/10/25 01:33:15;;;;;;;3.58;2.95;;;;;;;9.47;100.00;95626.50;5030356;28;20052;-75
2023/10/25 01:35:40;;;;;;;5.20;3.08;;;;;;;9.52;100.00;95634.31;5032891;28;20048;-74
2023/10/25 01:38:05;;;;;;;4.65;2.53;;;;;;;9.68;100.00;95633.19;5027812;28;20045;-73
2023/10/25 01:40:31;;;;;;;6.00;3.08;;;;;;;9.66;100.00;95630.06;5023628;28;20049;-74
2023/10/25 01:42:56;;;;;;;3.95;2.90;;;;;;;9.55;100.00;95625.34;5022763;28;20492;-75
2023/10/25 01:45:23;;;;;;;6.38;3.65;;;;;;;9.42;100.00;95615.13;5019110;28;20053;-73
2023/10/25 01:47:49;;;;;;;8.40;3.22;;;;;;;9.49;100.00;95612.44;5038379;28;20044;-74
2023/10/25 01:50:15;;;;;;;4.40;3.60;;;;;;;9.38;100.00;95599.53;5031775;28;20068;-71
2023/10/25 01:52:40;;;;;;;7.95;3.30;;;;;;;9.30;100.00;95599.88;5004779;28;20081;-73
2023/10/25 01:55:06;;;;;;;4.60;3.50;;;;;;;9.21;100.00;95602.19;5017056;28;20033;-73
2023/10/25 01:57:31;;;;;;;7.03;4.03;;;;;;;9.18;100.00;95596.34;5004603;28;20033;-73
2023/10/25 01:59:57;;;;;;;8.02;3.67;;;;;;;9.14;100.00;95589.28;5022037;28;20144;-74
2023/10/25 02:02:22;;;;;;;4.53;3.40;;;;;;;9.16;100.00;95600.59;5016353;28;20432;-73
2023/10/25 02:04:47;;;;;;;6.20;3.78;;;;;;;9.26;100.00;95596.38;4988183;28;20073;-73
2023/10/25 02:07:13;;;;;;;4.47;3.45;;;;;;;9.33;100.00;95596.41;5016094;28;20037;-73
2023/10/25 02:09:38;;;;;;;5.60;3.28;;;;;;;9.41;100.00;95603.44;5022472;28;20072;-73
2023/10/25 02:12:04;;;;;;;4.45;2.78;;;;;;;9.49;100.00;95599.56;5019051;28;20041;-75
2023/10/25 02:14:31;;;;;;;5.32;3.47;;;;;;;9.55;100.00;95606.22;5016698;28;20112;-73
2023/10/25 02:16:57;;;;;;;4.90;3.50;;;;;;;9.50;100.00;95609.31;5000728;28;20149;-73
2023/10/25 02:19:22;;;;;;;5.45;3.90;;;;;;;9.42;100.00;95601.47;5025879;28;20069;-73
2023/10/25 02:21:47;;;;;;;4.28;3.67;;;;;;;9.36;100.00;95601.88;5022704;28;20037;-72
2023/10/25 02:24:15;;;;;;;6.15;3.88;;;;;;;9.38;100.00;95598.72;5017038;28;20108;-72
2023/10/25 02:26:44;;;;;;;5.25;3.80;;;;;;;9.38;100.00;95591.34;5015439;28;20048;-73
2023/10/25 02:29:09;;;;;;;5.30;3.73;;;;;;;9.34;100.00;95595.22;5011010;28;20136;-73
2023/10/25 02:31:36;;;;;;;7.22;4.03;;;;;;;9.29;100.00;95593.66;5020947;28;20391;-73
2023/10/25 02:34:02;;;;;;;8.57;3.40;;;;;;;9.32;100.00;95592.09;5029751;28;20485;-75
2023/10/25 02:36:31;;;;;;;4.10;3.40;;;;;;;9.42;100.00;95596.81;5002102;28;20494;-73
2023/10/25 02:38:57;;;;;;;5.93;3.75;;;;;;;9.45;100.00;95587.03;5033229;28;20068;-74
2023/10/25 02:41:23;;;;;;;7.07;3.65;;;;;;;9.38;100.00;95580.41;5025595;28;20052;-75
2023/10/25 02:43:51;;;;;;;7.30;4.97;;;;;;;9.23;100.00;95576.03;5019642;28;20037;-73
2023/10/25 02:46:17;;;;;;;8.15;5.70;;;;;;;9.11;100.00;95579.13;5018129;28;20132;-73
2023/10/25 02:48:43;;;;;;;7.78;6.00;;;;;;;9.06;100.00;95577.56;5028328;28;20043;-74
2023/10/25 02:51:08;;;;;;;7.78;6.07;;;;;;;9.07;100.00;95581.84;5016176;28;20041;-74
2023/10/25 02:53:34;;;;;;;8.93;6.53;;;;;;;9.02;100.00;95571.31;5020601;28;20041;-73
2023/10/25 02:56:04;;;;;;;10.05;7.10;;;;;;;8.98;100.00;95570.50;5003983;28;20033;-73
2023/10/25 02:58:30;;;;;;;11.68;6.68;;;;;;;8.95;100.00;95566.59;5011510;28;20121;-73
2023/10/25 03:00:59;;;;;;;10.95;7.25;;;;;;;8.94;100.00;95575.16;5023373;28;20533;-73
2023/10/25 03:03:27;;;;;;;10.02;7.57;;;;;;;8.94;100.00;95570.47;5025660;28;20869;-73
2023/10/25 03:05:53;;;;;;;9.13;6.25;;;;;;;8.92;100.00;95569.31;5029809;28;20144;-74
2023/10/25 03:08:19;;;;;;;12.48;7.57;;;;;;;8.91;100.00;95573.19;5021637;28;20199;-74
2023/10/25 03:10:44;;;;;;;10.73;6.03;;;;;;;8.88;100.00;95568.50;5034457;28;20045;-73
2023/10/25 03:13:09;;;;;;;9.80;6.75;;;;;;;8.85;100.00;95572.00;5028786;28;20057;-74
2023/10/25 03:15:35;;;;;;;10.70;5.53;;;;;;;8.80;100.00;95573.94;5026043;28;20045;-73
2023/10/25 03:18:01;;;;;;;10.70;5.85;;;;;;;8.79;100.00;95575.09;5025207;28;20062;-73
2023/10/25 03:20:27;;;;;;;7.95;5.63;;;;;;;8.79;100.00;95577.03;5033224;28;20041;-74
2023/10/25 03:22:52;;;;;;;7.25;5.90;;;;;;;8.82;100.00;95578.22;5030169;28;20041;-73
2023/10/25 03:25:18;;;;;;;11.63;5.35;;;;;;;8.83;100.00;95577.84;5020043;28;20045;-74
2023/10/25 03:27:43;;;;;;;7.82;5.28;;;;;;;8.80;100.00;95560.28;5025954;28;20124;-73
2023/10/25 03:30:09;;;;;;;7.65;4.80;;;;;;;8.78;100.00;95559.84;5021314;28;20048;-74
2023/10/25 03:32:34;;;;;;;7.53;5.03;;;;;;;8.79;100.00;95545.06;5002265;28;20045;-74
2023/10/25 03:35:00;;;;;;;8.70;5.03;;;;;;;8.75;100.00;95541.53;5046775;28;20069;-74
2023/10/25 03:37:25;;;;;;;7.03;5.00;;;;;;;8.63;100.00;95546.53;5027572;28;20045;-74
2023/10/25 03:39:51;;;;;;;10.00;5.45;;;;;;;8.54;100.00;95538.69;5034316;28;20041;-73
2023/10/25 03:42:16;;;;;;;9.43;6.18;;;;;;;8.49;100.00;95545.28;5030298;28;20033;-73
2023/10/25 03:44:41;;;;;;;7.68;5.63;;;;;;;8.44;100.00;95542.13;5037288;28;20127;-73
2023/10/25 03:47:07;;;;;;;7.90;6.05;;;;;;;8.39;100.00;95544.03;5031370;28;20707;-75
2023/10/25 03:49:32;;;;;;;9.73;6.20;;;;;;;8.35;100.00;95547.91;5015997;28;20057;-73
2023/10/25 03:51:58;;;;;;;7.95;5.55;;;;;;;8.30;100.00;95549.06;5023937;28;20053;-75
2023/10/25 03:54:23;;;;;;;8.75;5.78;;;;;;;8.23;100.00;95538.88;5019938;28;20079;-73
2023/10/25 03:56:48;;;;;;;10.40;6.78;;;;;;;8.18;100.00;95533.00;5023541;28;20661;-74
2023/10/25 03:59:15;;;;;;;10.55;6.20;;;;;;;8.10;100.00;95532.13;5020856;28;20033;-74
2023/10/25 04:01:41;;;;;;;13.40;8.10;;;;;;;8.05;100.00;95535.25;5039635;28;20041;-74
2023/10/25 04:04:06;;;;;;;9.88;7.47;;;;;;;8.06;100.00;95539.50;5002166;28;20393;-75
2023/10/25 04:06:32;;;;;;;11.80;7.63;;;;;;;8.03;100.00;95532.88;5028582;28;20071;-73
2023/10/25 04:08:58;;;;;;;10.98;7.80;;;;;;;7.97;100.00;95533.59;5019942;28;20580;-74
2023/10/25 04:11:23;;;;;;;12.10;7.57;;;;;;;7.90;100.00;95534.31;5019257;28;20051;-74
2023/10/25 04:13:49;;;;;;;10.88;7.80;;;;;;;7.89;100.00;95530.06;5023583;28;20546;-74
2023/10/25 04:16:15;;;;;;;12.23;8.35;;;;;;;7.84;100.00;95524.94;5020706;28;20049;-74
2023/10/25 04:18:41;;;;;;;12.32;8.18;;;;;;;7.83;100.00;95526.09;5023929;28;20044;-74
2023/10/25 04:21:10;;;;;;;10.98;7.75;;;;;;;7.82;100.00;95532.72;5039908;28;20071;-72
2023/10/25 04:23:36;;;;;;;11.32;8.23;;;;;;;7.84;100.00;95528.44;5007006;28;20555;-71
2023/10/25 04:26:05;;;;;;;12.27;7.97;;;;;;;7.88;100.00;95524.97;5022815;28;20042;-69
2023/10/25 04:28:30;;;;;;;12.90;8.00;;;;;;;7.90;100.00;95531.59;5024796;28;20049;-69
2023/10/25 04:30:55;;;;;;;11.15;7.50;;;;;;;7.91;100.00;95525.00;5031769;28;20072;-72
2023/10/25 04:33:21;;;;;;;9.68;7.55;;;;;;;7.97;100.00;95526.19;5012032;28;20216;-72
2023/10/25 04:35:46;;;;;;;10.75;7.60;;;;;;;7.99;100.00;95526.59;5023064;28;20038;-74
2023/10/25 04:38:11;;;;;;;12.52;8.48;;;;;;;7.91;100.00;95524.22;5018554;28;20065;-73
2023/10/25 04:40:37;;;;;;;12.38;8.88;;;;;;;7.78;100.00;95510.09;5025090;28;20041;-72
2023/10/25 04:43:02;;;;;;;14.23;9.43;;;;;;;7.71;100.00;95508.09;5021103;28;20042;-72
2023/10/25 04:45:29;;;;;;;16.27;9.90;;;;;;;7.68;100.00;95508.06;5021203;28;20033;-72
2023/10/25 04:47:55;;;;;;;13.90;9.15;;;;;;;7.69;100.00;95501.44;5023335;28;20033;-72
2023/10/25 04:50:21;;;;;;;11.82;9.07;;;;;;;7.67;100.00;95501.84;5016547;28;20056;-71
2023/10/25 04:52:47;;;;;;;17.52;9.68;;;;;;;7.66;100.00;95505.72;5021324;28;20045;-73
2023/10/25 04:55:13;;;;;;;13.00;10.00;;;;;;;7.69;100.00;95501.44;5017884;28;20408;-71
2023/10/25 04:57:38;;;;;;;16.98;10.50;;;;;;;7.69;100.00;95504.97;5022283;28;20056;-72
2023/10/25 05:00:08;;;;;;;14.90;10.07;;;;;;;7.60;100.00;95502.56;5020079;28;20060;-74
2023/10/25 05:02:33;;;;;;;15.73;10.02;;;;;;;7.51;100.00;95498.56;5014836;28;20045;-72
2023/10/25 05:04:59;;;;;;;19.85;10.30;;;;;;;7.54;100.00;95498.59;5035002;28;20056;-72
2023/10/25 05:07:24;;;;;;;15.30;10.05;;;;;;;7.48;100.00;95491.94;5016508;28;20045;-71
2023/10/25 05:09:50;;;;;;;15.10;9.65;;;;;;;7.39;100.00;95483.28;5022950;28;20091;-72
2023/10/25 05:12:20;;;;;;;14.90;9.32;;;;;;;7.41;100.00;95491.88;5018394;28;20136;-71
2023/10/25 05:14:46;;;;;;;15.45;10.02;;;;;;;7.51;100.00;95487.66;5029220;28;20037;-71
2023/10/25 05:17:12;;;;;;;14.93;9.77;;;;;;;7.49;100.00;95487.25;4999429;28;20045;-74
2023/10/25 05:19:37;;;;;;;17.10;10.70;;;;;;;7.50;100.00;95472.50;5021384;28;20041;-71
2023/10/25 05:22:10;;;;;;;13.55;9.48;;;;;;;7.49;100.00;95463.53;5019919;28;20069;-72
2023/10/25 05:24:36;;;;;;;15.10;9.65;;;;;;;7.50;100.00;95458.88;5020396;28;20037;-72
2023/10/25 05:27:02;;;;;;;17.35;10.10;;;;;;;7.49;100.00;95457.28;5003972;28;20508;-74
2023/10/25 05:29:27;;;;;;;24.00;12.18;;;;;;;7.62;100.00;95453.91;5021942;28;20045;-71
2023/10/25 05:31:55;;;;;;;24.40;11.98;;;;;;;7.58;100.00;95450.38;5024074;28;20045;-77
2023/10/25 05:34:21;;;;;;;23.42;11.52;;;;;;;7.66;100.00;95443.81;5016536;28;20041;-73
2023/10/25 05:36:47;;;;;;;17.52;10.77;;;;;;;7.58;100.00;95438.69;5029795;28;20200;-74
2023/10/25 05:39:12;;;;;;;17.35;11.05;;;;;;;7.56;100.00;95447.25;5025266;28;20069;-74
2023/10/25 05:41:40;;;;;;;15.77;9.80;;;;;;;7.57;100.00;95437.91;5024011;28;20488;-74
2023/10/25 05:44:15;;;;;;;15.32;9.85;;;;;;;7.56;100.00;95441.00;5016495;28;20042;-73
2023/10/25 05:46:41;;;;;;;15.30;8.95;;;;;;;7.58;100.00;95438.69;5022230;28;20052;-73
2023/10/25 05:49:07;;;;;;;16.33;9.25;;;;;;;7.55;100.00;95434.00;5016624;28;20378;-74
2023/10/25 05:51:33;;;;;;;14.70;8.38;;;;;;;7.58;100.00;95434.03;5020223;28;20395;-73
2023/10/25 05:54:00;;;;;;;14.38;8.40;;;;;;;7.66;100.00;95434.84;5029601;28;20099;-74
2023/10/25 05:56:26;;;;;;;17.60;9.77;;;;;;;7.66;100.00;95434.84;5016060;28;20057;-74
2023/10/25 05:58:55;;;;;;;15.07;9.40;;;;;;;7.63;100.00;95439.13;5022139;28;20048;-73
2023/10/25 06:01:54;;;;;;;16.27;9.95;;;;;;;7.57;100.00;95437.91;5016285;28;20192;-72
2023/10/25 06:04:23;;;;;;;16.20;9.93;;;;;;;7.57;100.00;95442.59;4994545;28;20071;-69
2023/10/25 06:06:49;;;;;;;56.88;27.40;;;;;;;7.49;100.00;95443.66;5026999;28;20098;-70
2023/10/25 06:09:14;;;;;;;25.77;16.92;;;;;;;7.55;100.00;95439.47;5016174;28;20129;-72
2023/10/25 06:11:41;;;;;;;50.85;33.80;;;;;;;7.58;100.00;95447.66;5020953;28;20045;-72
2023/10/25 06:14:07;;;;;;;28.35;19.20;;;;;;;7.62;100.00;95448.47;5016296;28;20041;-72
2023/10/25 06:16:33;;;;;;;32.05;18.50;;;;;;;7.65;100.00;95444.19;5020452;28;20072;-72
2023/10/25 06:18:59;;;;;;;23.75;13.95;;;;;;;7.65;100.00;95445.00;5021069;28;20147;-72
2023/10/25 06:21:25;;;;;;;19.52;11.60;;;;;;;7.66;100.00;95445.75;5015706;28;20388;-72
2023/10/25 06:23:51;;;;;;;20.38;11.52;;;;;;;7.66;100.00;95452.00;5020982;28;20041;-72
2023/10/25 06:26:17;;;;;;;29.45;19.17;;;;;;;7.71;100.00;95447.38;5015846;28;20041;-72
2023/10/25 06:28:42;;;;;;;24.50;14.73;;;;;;;7.78;100.00;95447.41;5022584;28;20042;-71
2023/10/25 06:31:14;;;;;;;27.83;19.90;;;;;;;7.79;100.00;95444.28;5017687;28;20041;-73
2023/10/25 06:33:43;;;;;;;33.17;24.25;;;;;;;7.77;100.00;95440.38;5021023;28;20408;-72
2023/10/25 06:36:09;;;;;;;30.88;18.70;;;;;;;7.81;100.00;95435.72;5023835;28;20110;-73
2023/10/25 06:38:35;;;;;;;37.67;23.27;;;;;;;7.84;100.00;95438.47;5021465;28;20049;-72
2023/10/25 06:41:01;;;;;;;35.13;20.05;;;;;;;7.92;100.00;95431.13;5028889;28;20065;-73
2023/10/25 06:43:30;;;;;;;35.95;21.80;;;;;;;8.00;100.00;95427.28;5017463;28;20051;-72
2023/10/25 06:45:58;;;;;;;54.65;33.92;;;;;;;8.03;100.00;95426.53;5020848;28;20489;-72
2023/10/25 06:48:24;;;;;;;31.83;16.98;;;;;;;8.11;100.00;95426.56;5015761;28;20582;-72
2023/10/25 06:50:50;;;;;;;27.48;16.40;;;;;;;8.16;100.00;95424.25;5023079;28;20040;-72
2023/10/25 06:53:16;;;;;;;32.10;19.83;;;;;;;8.23;100.00;95416.13;5024423;28;20052;-72
2023/10/25 06:55:42;;;;;;;27.88;16.00;;;;;;;8.27;100.00;95413.41;5028069;28;20041;-71
2023/10/25 06:58:08;;;;;;;32.10;19.40;;;;;;;8.36;100.00;95407.59;5023146;28;20041;-72
2023/10/25 07:00:33;;;;;;;36.28;19.35;;;;;;;8.48;100.00;95410.03;4986828;28;20041;-71
2023/10/25 07:03:03;;;;;;;30.05;16.90;;;;;;;8.78;100.00;95412.44;4986318;28;20045;-71
2023/10/25 07:05:29;;;;;;;28.27;15.55;;;;;;;9.39;100.00;95414.47;5018671;28;20038;-72
2023/10/25 07:07:56;;;;;;;21.83;13.27;;;;;;;9.57;100.00;95415.25;5020003;28;20408;-72
2023/10/25 07:10:23;;;;;;;17.33;10.70;;;;;;;9.82;100.00;95408.22;5014873;28;20060;-71
2023/10/25 07:12:49;;;;;;;16.55;11.10;;;;;;;10.14;100.00;95397.97;5020520;28;20034;-71
2023/10/25 07:15:14;;;;;;;20.45;11.38;;;;;;;10.65;100.00;95392.34;5013736;28;20428;-71
2023/10/25 07:17:41;;;;;;;14.82;10.10;;;;;;;10.80;100.00;95393.81;5028290;28;20470;-72
2023/10/25 07:20:10;;;;;;;18.83;13.73;;;;;;;11.04;100.00;95388.59;5016771;28;20042;-72
2023/10/25 07:22:36;;;;;;;12.80;8.18;;;;;;;11.17;100.00;95389.69;5029310;28;20044;-72
2023/10/25 07:25:02;;;;;;;13.10;8.70;;;;;;;11.23;100.00;95385.31;5019887;28;20037;-71
2023/10/25 07:27:28;;;;;;;9.15;6.30;;;;;;;11.96;100.00;95383.56;5018099;28;20049;-71
2023/10/25 07:29:53;;;;;;;9.23;6.50;;;;;;;12.07;100.00;95380.69;5020168;28;20038;-71
2023/10/25 07:32:19;;;;;;;9.98;6.68;;;;;;;11.92;100.00;95371.03;5015520;28;20045;-71
2023/10/25 07:34:44;;;;;;;11.20;6.93;;;;;;;11.77;100.00;95357.44;5028611;28;20824;-71
2023/10/25 07:37:10;;;;;;;11.88;6.68;;;;;;;12.18;100.00;95364.13;5008536;28;20041;-72
2023/10/25 07:39:35;;;;;;;10.88;6.13;;;;;;;12.94;100.00;95370.19;5020559;28;20042;-71
2023/10/25 07:42:01;;;;;;;8.27;5.78;;;;;;;12.78;100.00;95370.03;5022114;28;20041;-72
2023/10/25 07:44:29;;;;;;;11.38;6.38;;;;;;;12.09;100.00;95372.06;5028090;28;20056;-72
2023/10/25 07:46:55;;;;;;;9.00;5.63;;;;;;;12.31;100.00;95362.38;5026086;28;20045;-71
2023/10/25 07:49:21;;;;;;;10.45;6.53;;;;;;;11.76;100.00;95366.88;5018782;28;20535;-72
2023/10/25 07:51:46;;;;;;;8.98;6.30;;;;;;;11.47;100.00;95363.63;5026130;28;20484;-71
2023/10/25 07:54:11;;;;;;;11.18;7.20;;;;;;;11.05;100.00;95363.53;5026368;28;20045;-71
2023/10/25 07:56:37;;;;;;;11.90;7.03;;;;;;;11.72;100.00;95363.38;5024099;28;20063;-71
2023/10/25 07:59:02;;;;;;;9.80;6.13;;;;;;;12.15;100.00;95370.41;5020886;28;20041;-71
2023/10/25 08:01:28;;;;;;;9.50;6.03;;;;;;;12.25;100.00;95372.25;5003986;28;20041;-71
2023/10/25 08:03:54;;;;;;;8.57;6.05;;;;;;;12.17;100.00;95366.09;5023438;28;20045;-71
2023/10/25 08:06:19;;;;;;;11.18;6.70;;;;;;;12.11;100.00;95364.97;5018526;28;20040;-70
2023/10/25 08:08:45;;;;;;;9.65;6.03;;;;;;;12.95;100.00;95358.03;5023758;28;20048;-72
2023/10/25 08:11:10;;;;;;;14.93;10.98;;;;;;;13.71;100.00;95365.13;5018931;28;20049;-72
2023/10/25 08:13:40;;;;;;;11.20;7.30;;;;;;;13.48;100.00;95361.16;5023105;28;20928;-69
2023/10/25 08:16:06;;;;;;;8.07;5.65;;;;;;;14.26;100.00;95369.22;5019043;28;20068;-73
2023/10/25 08:18:32;;;;;;;10.43;7.55;;;;;;;13.58;100.00;95351.94;5022815;28;20044;-71
2023/10/25 08:20:58;;;;;;;8.80;5.75;;;;;;;14.00;100.00;95354.34;5023002;28;20029;-71
2023/10/25 08:23:24;;;;;;;9.40;5.32;;;;;;;13.48;100.00;95341.91;5017795;28;20323;-71
2023/10/25 08:25:51;;;;;;;8.75;6.63;;;;;;;13.16;100.00;95337.69;5023304;28;20072;-71
2023/10/25 08:28:17;;;;;;;8.65;6.25;;;;;;;12.58;100.00;95340.47;5017847;28;20038;-71
2023/10/25 08:30:43;;;;;;;9.65;6.30;;;;;;;12.27;100.00;95331.44;5023937;28;20044;-71
2023/10/25 08:33:08;;;;;;;9.70;6.97;;;;;;;12.15;100.00;95329.25;5017916;28;20053;-70
2023/10/25 08:35:33;;;;;;;15.10;7.07;;;;;;;12.58;100.00;95326.72;5022628;28;20145;-70
2023/10/25 08:37:59;;;;;;;11.95;6.75;;;;;;;12.33;100.00;95324.31;5023110;28;20030;-71
2023/10/25 08:40:25;;;;;;;11.85;8.43;;;;;;;12.00;100.00;95318.44;5017381;28;20133;-71
2023/10/25 08:42:50;;;;;;;14.95;9.82;;;;;;;11.99;100.00;95310.59;5027127;28;20072;-71
2023/10/25 08:45:16;;;;;;;11.52;7.40;;;;;;;12.18;100.00;95309.22;5027353;28;20722;-71
2023/10/25 08:47:42;;;;;;;9.10;6.50;;;;;;;13.55;100.00;95319.00;5023670;28;20045;-71
2023/10/25 08:50:08;;;;;;;8.48;5.45;;;;;;;13.91;100.00;95321.88;5017992;28;20132;-72
2023/10/25 08:52:39;;;;;;;7.80;4.55;;;;;;;15.08;100.00;95321.84;5029841;28;20130;-71
2023/10/25 08:55:11;;;;;;;7.85;4.50;;;;;;;15.56;100.00;95312.00;4995498;28;20038;-72
2023/10/25 08:57:37;;;;;;;8.18;4.13;;;;;;;14.85;100.00;95326.28;5021534;28;20042;-71
2023/10/25 09:00:07;;;;;;;6.88;3.88;;;;;;;14.64;100.00;95321.25;5019745;28;20516;-68
2023/10/25 09:02:38;;;;;;;6.45;3.53;;;;;;;14.02;100.00;95318.16;5022020;28;20056;-70
2023/10/25 09:05:08;;;;;;;4.88;3.50;;;;;;;13.75;100.00;95313.53;5018785;28;20033;-68
2023/10/25 09:07:35;;;;;;;6.25;3.97;;;;;;;13.82;100.00;95313.41;5021583;28;20205;-70
2023/10/25 09:10:05;;;;;;;6.13;3.97;;;;;;;13.48;100.00;95325.41;5022330;28;20396;-69
2023/10/25 09:12:32;;;;;;;10.02;3.70;;;;;;;13.41;100.00;95319.25;5023338;28;20054;-71
2023/10/25 09:14:58;;;;;;;5.80;3.97;;;;;;;12.85;100.00;95304.00;5023483;28;20053;-72
2023/10/25 09:17:23;;;;;;;5.97;3.47;;;;;;;13.00;100.00;95321.81;5017273;28;20045;-71
2023/10/25 09:19:49;;;;;;;5.35;3.20;;;;;;;13.60;100.00;95331.50;5022874;28;20040;-72
2023/10/25 09:22:22;;;;;;;8.52;3.00;;;;;;;14.11;100.00;95324.63;5017312;28;20042;-72
2023/10/25 09:24:49;;;;;;;4.65;3.08;;;;;;;14.83;100.00;95328.69;5021747;28;20033;-70
2023/10/25 09:27:14;;;;;;;5.10;2.75;;;;;;;15.42;100.00;95321.41;5015147;28;20041;-71
2023/10/25 09:29:40;;;;;;;3.47;2.28;;;;;;;16.31;100.00;95314.75;5021767;28;20037;-71
2023/10/25 09:32:07;;;;;;;3.70;2.05;;;;;;;16.33;97.74;95314.31;5016571;28;20099;-71
2023/10/25 09:34:34;;;;;;;4.78;2.03;;;;;;;16.94;93.86;95307.81;5018806;28;20045;-71
2023/10/25 09:37:00;;;;;;;3.35;1.75;;;;;;;15.10;100.00;95322.19;5021040;28;20040;-72
2023/10/25 09:39:26;;;;;;;8.25;2.70;;;;;;;16.90;93.44;95328.50;5016129;28;20069;-70
2023/10/25 09:41:53;;;;;;;5.05;1.92;;;;;;;16.21;94.23;95315.84;5021378;28;20073;-71
2023/10/25 09:44:22;;;;;;;3.28;2.10;;;;;;;15.95;98.51;95320.50;5016813;28;20033;-72
2023/10/25 09:46:50;;;;;;;3.67;2.05;;;;;;;16.44;95.69;95315.59;5004723;28;20088;-72
2023/10/25 09:49:18;;;;;;;4.25;2.20;;;;;;;16.77;91.48;95303.59;5015918;28;20037;-71
2023/10/25 09:52:06;;;;;;;5.90;2.40;;;;;;;16.87;91.11;95298.97;5013317;28;20033;-71
2023/10/25 09:54:33;;;;;;;4.45;2.00;;;;;;;17.46;86.55;95288.41;5020075;28;20042;-71
2023/10/25 09:57:01;;;;;;;4.03;1.70;;;;;;;17.39;85.79;95286.63;5021201;28;20033;-71
2023/10/25 09:59:29;;;;;;;5.88;2.05;;;;;;;17.12;88.19;95298.94;5017946;28;20045;-72
2023/10/25 10:01:55;;;;;;;9.60;2.83;;;;;;;17.17;88.61;95284.56;5021075;28;20041;-71
2023/10/25 10:04:32;;;;;;;3.58;1.73;;;;;;;15.32;99.64;95278.31;5017133;28;20030;-71
2023/10/25 10:07:12;;;;;;;2.97;2.00;;;;;;;14.41;100.00;95276.06;5021092;28;20078;-73
2023/10/25 10:09:51;;;;;;;3.88;2.28;;;;;;;14.66;100.00;95270.03;5021473;28;20041;-70
2023/10/25 10:12:17;;;;;;;4.55;2.70;;;;;;;14.28;100.00;95264.16;5015232;28;20520;-72
2023/10/25 10:14:42;;;;;;;5.75;2.58;;;;;;;14.29;100.00;95255.44;5019783;28;20068;-71
2023/10/25 10:17:14;;;;;;;4.68;1.92;;;;;;;14.78;100.00;95260.28;5015085;28;20076;-71
2023/10/25 10:19:47;;;;;;;5.20;2.28;;;;;;;15.42;100.00;95265.47;5020285;28;20033;-71
2023/10/25 10:22:14;;;;;;;6.03;2.20;;;;;;;14.34;100.00;95256.94;5015955;28;20034;-71
2023/10/25 10:24:48;;;;;;;4.70;1.92;;;;;;;14.47;100.00;95252.31;5020115;28;20477;-72
2023/10/25 10:27:19;;;;;;;3.92;2.42;;;;;;;14.56;100.00;95254.47;5016532;28;20152;-71
2023/10/25 10:29:48;;;;;;;5.03;2.05;;;;;;;14.39;100.00;95250.91;5019626;28;20103;-71
2023/10/25 10:32:14;;;;;;;2.83;1.85;;;;;;;14.31;100.00;95269.59;5015871;28;20037;-70
2023/10/25 10:34:44;;;;;;;3.20;1.90;;;;;;;13.90;100.00;95239.72;5017178;28;20033;-71
2023/10/25 10:37:12;;;;;;;;;;;;;;;14.95;100.00;95239.03;5015792;28;20095;-72
2023/10/25 10:39:58;;;;;;;3.30;2.20;;;;;;;13.86;100.00;95217.03;5020657;28;19920;-70
2023/10/25 10:42:29;;;;;;;13.93;8.32;;;;;;;13.99;100.00;95223.44;5015640;28;20611;-72
2023/10/25 10:44:59;;;;;;;4.70;2.85;;;;;;;14.14;100.00;95232.94;5021426;28;20392;-72
2023/10/25 10:47:43;;;;;;;;;;;;;;;14.42;100.00;95205.22;5016637;28;20426;-71
2023/10/25 10:50:12;;;;;;;5.57;2.60;;;;;;;13.88;100.00;95198.09;5017833;28;20022;-71
2023/10/25 10:52:40;;;;;;;5.28;2.92;;;;;;;14.62;100.00;95210.69;5020421;28;20046;-71
2023/10/25 10:55:07;;;;;;;8.95;2.70;;;;;;;13.56;100.00;95174.78;5015351;28;20384;-71
2023/10/25 10:57:33;;;;;;;3.97;2.55;;;;;;;13.43;100.00;95182.09;5020154;28;20519;-71
2023/10/25 10:59:59;;;;;;;5.30;2.50;;;;;;;13.47;100.00;95178.09;5020631;28;20136;-71
2023/10/25 11:02:25;;;;;;;7.80;3.35;;;;;;;13.29;100.00;95163.84;5016050;28;20076;-72
2023/10/25 11:04:51;;;;;;;8.35;3.90;;;;;;;13.20;100.00;95150.69;5020793;28;20072;-72
2023/10/25 11:07:19;;;;;;;4.20;2.72;;;;;;;13.93;100.00;95159.84;5016701;28;20082;-69
2023/10/25 11:09:45;;;;;;;4.82;2.92;;;;;;;14.32;100.00;95158.22;5002286;28;20369;-71
2023/10/25 11:12:11;;;;;;;7.72;3.88;;;;;;;13.17;100.00;95121.28;5015181;28;20122;-71
2023/10/25 11:14:47;;;;;;;7.30;4.15;;;;;;;13.04;100.00;95123.13;5019597;28;20052;-72
2023/10/25 11:17:13;;;;;;;7.95;3.92;;;;;;;13.81;100.00;95163.28;5015882;28;20065;-71
2023/10/25 11:19:38;;;;;;;6.00;3.92;;;;;;;14.42;100.00;95167.44;5022320;28;20473;-72
2023/10/25 11:22:04;;;;;;;8.35;3.90;;;;;;;14.58;100.00;95149.38;5023040;28;20045;-69
2023/10/25 11:24:29;;;;;;;7.85;4.05;;;;;;;14.66;100.00;95131.50;5023998;28;20087;-72